This is the latest recevied weather packets stored in our database for station/object YB2VNE-13. If no packets are shown the sender has not sent any weather packets the latest 10 day(s).
| Time | Temp. | Humidity | Pressure | Rain* | Wind** | Luminosity | Snow |
|---|---|---|---|---|---|---|---|
| 1777201031 | 28.33° C | 82% | 994 hPa | - | - | 0 W/m² | - |
| 1777200721 | 28.33° C | 84% | 994 hPa | - | - | 0 W/m² | - |
| 1777200411 | 28.33° C | 84% | 994 hPa | - | - | 0 W/m² | - |
| 1777200101 | 27.78° C | 84% | 994 hPa | - | - | 0 W/m² | - |
| 1777199791 | 28.33° C | 85% | 994 hPa | - | - | 0 W/m² | - |
| 1777199481 | 27.78° C | 86% | 994 hPa | - | - | 0 W/m² | - |
| 1777199171 | 28.33° C | 85% | 994 hPa | - | - | 0 W/m² | - |
| 1777198861 | 28.33° C | 85% | 994 hPa | - | - | 0 W/m² | - |
| 1777198551 | 28.33° C | 85% | 994 hPa | - | - | 0 W/m² | - |
| 1777198241 | 28.33° C | 86% | 994 hPa | - | - | 0 W/m² | - |
| 1777197932 | 28.89° C | 85% | 994 hPa | - | - | 0 W/m² | - |
| 1777197621 | 28.33° C | 85% | 994 hPa | - | - | 0 W/m² | - |
| 1777197311 | 28.33° C | 87% | 994 hPa | - | - | 0 W/m² | - |
| 1777197001 | 28.33° C | 86% | 994 hPa | - | - | 0 W/m² | - |
| 1777196691 | 28.89° C | 85% | 994 hPa | - | - | 0 W/m² | - |
| 1777196381 | 28.33° C | 86% | 994 hPa | - | - | 0 W/m² | - |
| 1777196071 | 28.33° C | 85% | 993 hPa | - | - | 0 W/m² | - |
| 1777195761 | 27.78° C | 88% | 993 hPa | - | - | 0 W/m² | - |
| 1777195451 | 28.89° C | 78% | 994 hPa | - | - | 0 W/m² | - |
| 1777195141 | 29.44° C | 73% | 993 hPa | - | - | 0 W/m² | - |
| 1777194831 | 29.44° C | 71% | 993 hPa | - | - | 0 W/m² | - |
| 1777194521 | 29.44° C | 71% | 993 hPa | - | - | 0 W/m² | - |
| 1777194211 | 29.44° C | 71% | 993 hPa | - | - | 0 W/m² | - |
| 1777193901 | 29.44° C | 72% | 993 hPa | - | - | 0 W/m² | - |
| 1777193591 | 28.89° C | 75% | 993 hPa | - | - | 0 W/m² | - |
* Rain since midnight (hover to see other rain measurements)
** Current wind speed in m/s (hover to see current wind gust speed)